Terminal Aerodrome Forecast
Issued by NWS

Home | Current Version | Previous Version | Text Only | Print | Product List | Glossary On
Versions: 1 2 3 4 5 6 7 8 9 10 11 12 13 14 15 16 17 18 19 20
000
FTUS43 KGRR 161724
TAFJXN
TAF
KJXN 161724Z 1618/1718 24008KT 4SM -SN SCT025 BKN035
      TEMPO 1618/1622 1 1/2SM -SHSN BKN015
     FM170300 26006KT P6SM SCT040
     FM171100 24006KT 6SM -SHSN OVC025
     FM171400 24010KT P6SM SCT025
     FM171600 25012G22KT P6SM SCT080=

USA.gov is the U.S. government's official web portal to all federal, state and local government web resources and services.